sensor_id;sensor_type;location;lat;lon;timestamp;temperature;humidity
33011;DHT22;19370;48.562;9.196;2023-12-22T00:00:56;6.80;99.90
33011;DHT22;19370;48.562;9.196;2023-12-22T00:03:22;6.80;99.90
33011;DHT22;19370;48.562;9.196;2023-12-22T00:05:48;6.70;99.90
33011;DHT22;19370;48.562;9.196;2023-12-22T00:08:14;6.80;99.90
33011;DHT22;19370;48.562;9.196;2023-12-22T00:10:39;6.70;99.90
33011;DHT22;19370;48.562;9.196;2023-12-22T00:13:05;6.70;99.90
33011;DHT22;19370;48.562;9.196;2023-12-22T00:15:37;6.70;99.90
33011;DHT22;19370;48.562;9.196;2023-12-22T00:18:03;6.60;99.90
33011;DHT22;19370;48.562;9.196;2023-12-22T00:20:37;6.60;99.90
33011;DHT22;19370;48.562;9.196;2023-12-22T00:23:02;6.70;99.90
33011;DHT22;19370;48.562;9.196;2023-12-22T00:25:28;6.70;99.90
33011;DHT22;19370;48.562;9.196;2023-12-22T00:27:54;6.80;99.90
33011;DHT22;19370;48.562;9.196;2023-12-22T00:30:19;6.70;99.90
33011;DHT22;19370;48.562;9.196;2023-12-22T00:32:45;6.90;99.90
33011;DHT22;19370;48.562;9.196;2023-12-22T00:35:11;6.80;99.90
33011;DHT22;19370;48.562;9.196;2023-12-22T00:37:36;6.80;99.90
33011;DHT22;19370;48.562;9.196;2023-12-22T00:40:02;6.80;99.90
33011;DHT22;19370;48.562;9.196;2023-12-22T00:42:32;6.80;99.90
33011;DHT22;19370;48.562;9.196;2023-12-22T00:44:58;6.90;99.90
33011;DHT22;19370;48.562;9.196;2023-12-22T00:47:24;6.90;99.90
33011;DHT22;19370;48.562;9.196;2023-12-22T00:49:50;6.90;99.90
33011;DHT22;19370;48.562;9.196;2023-12-22T00:52:15;6.80;99.90
33011;DHT22;19370;48.562;9.196;2023-12-22T00:54:41;6.80;99.90
33011;DHT22;19370;48.562;9.196;2023-12-22T00:57:06;6.90;99.90
33011;DHT22;19370;48.562;9.196;2023-12-22T00:59:32;6.90;99.90
33011;DHT22;19370;48.562;9.196;2023-12-22T01:01:58;6.90;99.90
33011;DHT22;19370;48.562;9.196;2023-12-22T01:04:30;6.80;99.90
33011;DHT22;19370;48.562;9.196;2023-12-22T01:06:56;6.90;99.90
33011;DHT22;19370;48.562;9.196;2023-12-22T01:09:21;6.90;99.90
33011;DHT22;19370;48.562;9.196;2023-12-22T01:11:48;6.80;99.90
33011;DHT22;19370;48.562;9.196;2023-12-22T01:14:13;6.80;99.90
33011;DHT22;19370;48.562;9.196;2023-12-22T01:16:51;6.90;99.90
33011;DHT22;19370;48.562;9.196;2023-12-22T01:19:17;6.90;99.90
33011;DHT22;19370;48.562;9.196;2023-12-22T01:21:43;6.90;99.90
33011;DHT22;19370;48.562;9.196;2023-12-22T01:24:08;6.90;99.90
33011;DHT22;19370;48.562;9.196;2023-12-22T01:26:34;6.90;99.90
33011;DHT22;19370;48.562;9.196;2023-12-22T01:29:00;6.90;99.90
33011;DHT22;19370;48.562;9.196;2023-12-22T01:31:25;6.90;99.90
33011;DHT22;19370;48.562;9.196;2023-12-22T01:33:51;6.90;99.90
33011;DHT22;19370;48.562;9.196;2023-12-22T01:36:17;6.90;99.90
33011;DHT22;19370;48.562;9.196;2023-12-22T01:38:48;6.90;99.90
33011;DHT22;19370;48.562;9.196;2023-12-22T01:41:16;6.80;99.90
33011;DHT22;19370;48.562;9.196;2023-12-22T01:43:51;6.60;99.90
33011;DHT22;19370;48.562;9.196;2023-12-22T01:46:22;6.60;99.90
33011;DHT22;19370;48.562;9.196;2023-12-22T01:48:47;6.60;99.90
33011;DHT22;19370;48.562;9.196;2023-12-22T01:51:22;6.50;99.90
33011;DHT22;19370;48.562;9.196;2023-12-22T01:53:49;6.50;99.90
33011;DHT22;19370;48.562;9.196;2023-12-22T01:56:15;6.40;99.90
33011;DHT22;19370;48.562;9.196;2023-12-22T01:58:41;6.50;99.90
33011;DHT22;19370;48.562;9.196;2023-12-22T02:01:10;6.40;99.90
33011;DHT22;19370;48.562;9.196;2023-12-22T02:03:36;6.40;99.90
33011;DHT22;19370;48.562;9.196;2023-12-22T02:06:08;6.40;99.90
33011;DHT22;19370;48.562;9.196;2023-12-22T02:08:34;6.40;99.90
33011;DHT22;19370;48.562;9.196;2023-12-22T02:11:02;6.40;99.90
33011;DHT22;19370;48.562;9.196;2023-12-22T02:13:28;6.30;99.90
33011;DHT22;19370;48.562;9.196;2023-12-22T02:16:18;6.20;99.90
33011;DHT22;19370;48.562;9.196;2023-12-22T02:18:47;6.30;99.90
33011;DHT22;19370;48.562;9.196;2023-12-22T02:21:21;6.40;99.90
33011;DHT22;19370;48.562;9.196;2023-12-22T02:23:49;6.40;99.90
33011;DHT22;19370;48.562;9.196;2023-12-22T02:26:36;6.50;99.90
33011;DHT22;19370;48.562;9.196;2023-12-22T02:29:07;6.50;99.90
33011;DHT22;19370;48.562;9.196;2023-12-22T02:31:44;6.50;99.90
33011;DHT22;19370;48.562;9.196;2023-12-22T02:34:18;6.50;99.90
33011;DHT22;19370;48.562;9.196;2023-12-22T02:36:45;6.50;99.90
33011;DHT22;19370;48.562;9.196;2023-12-22T02:39:14;6.60;99.90
33011;DHT22;19370;48.562;9.196;2023-12-22T05:45:30;6.60;99.90
33011;DHT22;19370;48.562;9.196;2023-12-22T05:47:55;6.60;99.90
33011;DHT22;19370;48.562;9.196;2023-12-22T05:50:21;6.60;99.90
33011;DHT22;19370;48.562;9.196;2023-12-22T05:52:46;6.60;99.90
33011;DHT22;19370;48.562;9.196;2023-12-22T05:55:12;6.60;99.90
33011;DHT22;19370;48.562;9.196;2023-12-22T05:57:38;6.60;99.90
33011;DHT22;19370;48.562;9.196;2023-12-22T06:00:04;6.70;99.90
33011;DHT22;19370;48.562;9.196;2023-12-22T06:02:33;6.70;99.90
33011;DHT22;19370;48.562;9.196;2023-12-22T06:04:58;6.60;99.90
33011;DHT22;19370;48.562;9.196;2023-12-22T06:07:24;6.60;99.90
33011;DHT22;19370;48.562;9.196;2023-12-22T06:09:49;6.60;99.90
33011;DHT22;19370;48.562;9.196;2023-12-22T06:12:15;6.60;99.90
33011;DHT22;19370;48.562;9.196;2023-12-22T06:14:40;6.50;99.90
33011;DHT22;19370;48.562;9.196;2023-12-22T06:17:06;6.50;99.90
33011;DHT22;19370;48.562;9.196;2023-12-22T06:19:31;6.50;99.90
33011;DHT22;19370;48.562;9.196;2023-12-22T06:21:57;6.40;99.90
33011;DHT22;19370;48.562;9.196;2023-12-22T06:24:23;6.40;99.90
33011;DHT22;19370;48.562;9.196;2023-12-22T06:26:49;6.40;99.90
33011;DHT22;19370;48.562;9.196;2023-12-22T06:29:15;6.40;99.90
33011;DHT22;19370;48.562;9.196;2023-12-22T06:31:41;6.50;99.90
33011;DHT22;19370;48.562;9.196;2023-12-22T06:34:06;6.60;99.90
33011;DHT22;19370;48.562;9.196;2023-12-22T06:36:32;6.50;99.90
33011;DHT22;19370;48.562;9.196;2023-12-22T06:38:57;6.50;99.90
33011;DHT22;19370;48.562;9.196;2023-12-22T06:41:24;6.40;99.90
33011;DHT22;19370;48.562;9.196;2023-12-22T06:43:50;6.40;99.90
33011;DHT22;19370;48.562;9.196;2023-12-22T06:46:21;6.30;99.90
33011;DHT22;19370;48.562;9.196;2023-12-22T06:48:54;6.30;99.90
33011;DHT22;19370;48.562;9.196;2023-12-22T06:51:22;6.20;99.90
33011;DHT22;19370;48.562;9.196;2023-12-22T06:53:49;6.20;99.90
33011;DHT22;19370;48.562;9.196;2023-12-22T06:56:21;6.20;99.90
33011;DHT22;19370;48.562;9.196;2023-12-22T06:58:48;6.10;99.90
33011;DHT22;19370;48.562;9.196;2023-12-22T07:01:24;6.10;99.90
33011;DHT22;19370;48.562;9.196;2023-12-22T07:03:50;6.10;99.90
33011;DHT22;19370;48.562;9.196;2023-12-22T07:06:16;6.10;99.90
33011;DHT22;19370;48.562;9.196;2023-12-22T07:08:42;6.10;99.90
33011;DHT22;19370;48.562;9.196;2023-12-22T07:11:09;6.10;99.90
33011;DHT22;19370;48.562;9.196;2023-12-22T07:13:35;6.10;99.90
33011;DHT22;19370;48.562;9.196;2023-12-22T07:16:01;6.10;99.90
33011;DHT22;19370;48.562;9.196;2023-12-22T07:18:27;6.20;99.90
33011;DHT22;19370;48.562;9.196;2023-12-22T07:20:56;6.20;99.90
33011;DHT22;19370;48.562;9.196;2023-12-22T07:23:22;6.20;99.90
33011;DHT22;19370;48.562;9.196;2023-12-22T07:25:48;6.30;99.90
33011;DHT22;19370;48.562;9.196;2023-12-22T07:28:13;6.30;99.90
33011;DHT22;19370;48.562;9.196;2023-12-22T07:30:39;6.40;99.90
33011;DHT22;19370;48.562;9.196;2023-12-22T07:33:04;6.30;99.90
33011;DHT22;19370;48.562;9.196;2023-12-22T07:35:30;6.30;99.90
33011;DHT22;19370;48.562;9.196;2023-12-22T07:37:56;6.40;99.90
33011;DHT22;19370;48.562;9.196;2023-12-22T07:40:21;6.40;99.90
33011;DHT22;19370;48.562;9.196;2023-12-22T07:42:47;6.40;99.90
33011;DHT22;19370;48.562;9.196;2023-12-22T07:45:13;6.40;99.90
33011;DHT22;19370;48.562;9.196;2023-12-22T07:47:38;6.40;99.90
33011;DHT22;19370;48.562;9.196;2023-12-22T07:50:04;6.40;99.90
33011;DHT22;19370;48.562;9.196;2023-12-22T07:52:34;6.30;99.90
33011;DHT22;19370;48.562;9.196;2023-12-22T07:55:04;6.30;99.90
33011;DHT22;19370;48.562;9.196;2023-12-22T07:57:29;6.30;99.90
33011;DHT22;19370;48.562;9.196;2023-12-22T07:59:55;6.30;99.90
33011;DHT22;19370;48.562;9.196;2023-12-22T08:02:21;6.40;99.90
33011;DHT22;19370;48.562;9.196;2023-12-22T08:04:48;6.40;99.90
33011;DHT22;19370;48.562;9.196;2023-12-22T08:07:14;6.40;99.90
33011;DHT22;19370;48.562;9.196;2023-12-22T08:09:39;6.50;99.90
33011;DHT22;19370;48.562;9.196;2023-12-22T08:12:05;6.50;99.90
33011;DHT22;19370;48.562;9.196;2023-12-22T08:14:31;6.50;99.90
33011;DHT22;19370;48.562;9.196;2023-12-22T08:16:57;6.60;99.90
33011;DHT22;19370;48.562;9.196;2023-12-22T08:19:22;6.60;99.90
33011;DHT22;19370;48.562;9.196;2023-12-22T08:21:48;6.60;99.90
33011;DHT22;19370;48.562;9.196;2023-12-22T08:24:13;6.60;99.90
33011;DHT22;19370;48.562;9.196;2023-12-22T08:26:39;6.70;99.90
33011;DHT22;19370;48.562;9.196;2023-12-22T08:29:05;6.60;99.90
33011;DHT22;19370;48.562;9.196;2023-12-22T08:31:31;6.60;99.90
33011;DHT22;19370;48.562;9.196;2023-12-22T08:33:56;6.70;99.90
33011;DHT22;19370;48.562;9.196;2023-12-22T08:36:22;6.70;99.90
33011;DHT22;19370;48.562;9.196;2023-12-22T08:38:47;6.80;99.90
33011;DHT22;19370;48.562;9.196;2023-12-22T08:41:13;6.70;99.90
33011;DHT22;19370;48.562;9.196;2023-12-22T08:43:40;6.70;99.90
33011;DHT22;19370;48.562;9.196;2023-12-22T08:46:05;6.70;99.90
33011;DHT22;19370;48.562;9.196;2023-12-22T08:48:31;6.70;99.90
33011;DHT22;19370;48.562;9.196;2023-12-22T08:50:57;6.70;99.90
33011;DHT22;19370;48.562;9.196;2023-12-22T08:53:22;6.70;99.90
33011;DHT22;19370;48.562;9.196;2023-12-22T08:55:48;6.70;99.90
33011;DHT22;19370;48.562;9.196;2023-12-22T08:58:13;6.80;99.90
33011;DHT22;19370;48.562;9.196;2023-12-22T09:00:39;6.80;99.90
33011;DHT22;19370;48.562;9.196;2023-12-22T09:03:04;6.80;99.90
33011;DHT22;19370;48.562;9.196;2023-12-22T09:05:30;6.80;99.90
33011;DHT22;19370;48.562;9.196;2023-12-22T09:07:57;6.80;99.90
33011;DHT22;19370;48.562;9.196;2023-12-22T09:10:22;6.90;99.90
33011;DHT22;19370;48.562;9.196;2023-12-22T09:12:48;6.90;99.90
33011;DHT22;19370;48.562;9.196;2023-12-22T09:15:13;7.00;99.90
33011;DHT22;19370;48.562;9.196;2023-12-22T09:17:39;7.00;99.90
33011;DHT22;19370;48.562;9.196;2023-12-22T09:20:07;6.90;99.90
33011;DHT22;19370;48.562;9.196;2023-12-22T09:22:34;7.00;99.90
33011;DHT22;19370;48.562;9.196;2023-12-22T09:24:59;6.90;99.90
33011;DHT22;19370;48.562;9.196;2023-12-22T09:27:25;6.80;99.90
33011;DHT22;19370;48.562;9.196;2023-12-22T09:29:55;6.70;99.90
33011;DHT22;19370;48.562;9.196;2023-12-22T09:32:20;6.70;99.90
33011;DHT22;19370;48.562;9.196;2023-12-22T09:34:47;6.70;99.90
33011;DHT22;19370;48.562;9.196;2023-12-22T09:37:15;6.60;99.90
33011;DHT22;19370;48.562;9.196;2023-12-22T09:39:41;6.60;99.90
33011;DHT22;19370;48.562;9.196;2023-12-22T09:42:06;6.60;99.90
33011;DHT22;19370;48.562;9.196;2023-12-22T09:44:32;6.60;99.90
33011;DHT22;19370;48.562;9.196;2023-12-22T09:46:59;6.60;99.90
33011;DHT22;19370;48.562;9.196;2023-12-22T09:49:28;6.70;99.90
33011;DHT22;19370;48.562;9.196;2023-12-22T09:51:55;6.70;99.90
33011;DHT22;19370;48.562;9.196;2023-12-22T09:54:22;6.70;99.90
33011;DHT22;19370;48.562;9.196;2023-12-22T09:56:48;6.70;99.90
33011;DHT22;19370;48.562;9.196;2023-12-22T09:59:17;6.70;99.90
33011;DHT22;19370;48.562;9.196;2023-12-22T10:01:44;6.70;99.90
33011;DHT22;19370;48.562;9.196;2023-12-22T10:04:13;6.70;99.90
33011;DHT22;19370;48.562;9.196;2023-12-22T10:06:39;6.70;99.90
33011;DHT22;19370;48.562;9.196;2023-12-22T10:09:06;6.70;99.90
33011;DHT22;19370;48.562;9.196;2023-12-22T10:11:34;6.80;99.90
33011;DHT22;19370;48.562;9.196;2023-12-22T10:14:02;6.80;99.90
33011;DHT22;19370;48.562;9.196;2023-12-22T10:16:28;6.80;99.90
33011;DHT22;19370;48.562;9.196;2023-12-22T10:18:54;6.80;99.90
33011;DHT22;19370;48.562;9.196;2023-12-22T10:21:20;6.80;99.90
33011;DHT22;19370;48.562;9.196;2023-12-22T10:23:45;6.80;99.90
33011;DHT22;19370;48.562;9.196;2023-12-22T10:26:11;6.80;99.90
33011;DHT22;19370;48.562;9.196;2023-12-22T10:28:37;6.90;99.90
33011;DHT22;19370;48.562;9.196;2023-12-22T10:31:02;6.90;99.90
33011;DHT22;19370;48.562;9.196;2023-12-22T10:33:32;6.90;99.90
33011;DHT22;19370;48.562;9.196;2023-12-22T10:36:02;6.90;99.90
33011;DHT22;19370;48.562;9.196;2023-12-22T10:38:34;6.90;99.90
33011;DHT22;19370;48.562;9.196;2023-12-22T10:41:03;6.90;99.90
33011;DHT22;19370;48.562;9.196;2023-12-22T10:43:29;6.90;99.90
33011;DHT22;19370;48.562;9.196;2023-12-22T10:45:55;6.90;99.90
33011;DHT22;19370;48.562;9.196;2023-12-22T10:48:22;6.90;99.90
33011;DHT22;19370;48.562;9.196;2023-12-22T10:50:48;6.90;99.90
33011;DHT22;19370;48.562;9.196;2023-12-22T10:53:14;6.90;99.90
33011;DHT22;19370;48.562;9.196;2023-12-22T10:55:40;6.90;99.90
33011;DHT22;19370;48.562;9.196;2023-12-22T10:58:05;6.90;99.90
33011;DHT22;19370;48.562;9.196;2023-12-22T11:00:32;6.90;99.90
33011;DHT22;19370;48.562;9.196;2023-12-22T11:03:01;6.90;99.90
33011;DHT22;19370;48.562;9.196;2023-12-22T11:05:29;6.80;99.90
33011;DHT22;19370;48.562;9.196;2023-12-22T11:08:00;6.80;99.90
33011;DHT22;19370;48.562;9.196;2023-12-22T11:10:28;6.80;99.90
33011;DHT22;19370;48.562;9.196;2023-12-22T11:12:57;6.70;99.90
33011;DHT22;19370;48.562;9.196;2023-12-22T11:15:24;6.80;99.90
33011;DHT22;19370;48.562;9.196;2023-12-22T11:17:51;6.70;99.90
33011;DHT22;19370;48.562;9.196;2023-12-22T11:20:18;6.70;99.90
33011;DHT22;19370;48.562;9.196;2023-12-22T11:22:44;6.70;99.90
33011;DHT22;19370;48.562;9.196;2023-12-22T11:25:10;6.70;99.90
33011;DHT22;19370;48.562;9.196;2023-12-22T11:27:39;6.70;99.90
33011;DHT22;19370;48.562;9.196;2023-12-22T11:30:06;6.60;99.90
33011;DHT22;19370;48.562;9.196;2023-12-22T11:32:34;6.60;99.90
33011;DHT22;19370;48.562;9.196;2023-12-22T11:35:12;6.50;99.90
33011;DHT22;19370;48.562;9.196;2023-12-22T11:41:29;6.50;99.90
33011;DHT22;19370;48.562;9.196;2023-12-22T11:44:00;6.50;99.90
33011;DHT22;19370;48.562;9.196;2023-12-22T11:46:29;6.50;99.90
33011;DHT22;19370;48.562;9.196;2023-12-22T11:48:56;6.50;99.90
33011;DHT22;19370;48.562;9.196;2023-12-22T11:58:46;6.50;99.90
33011;DHT22;19370;48.562;9.196;2023-12-22T12:01:22;6.40;99.90
33011;DHT22;19370;48.562;9.196;2023-12-22T12:13:10;6.30;99.90
33011;DHT22;19370;48.562;9.196;2023-12-22T12:15:36;6.40;99.90
33011;DHT22;19370;48.562;9.196;2023-12-22T12:18:03;6.40;99.90
33011;DHT22;19370;48.562;9.196;2023-12-22T12:20:28;6.40;99.90
33011;DHT22;19370;48.562;9.196;2023-12-22T12:22:55;6.40;99.90
33011;DHT22;19370;48.562;9.196;2023-12-22T12:25:24;6.40;99.90
33011;DHT22;19370;48.562;9.196;2023-12-22T12:28:06;6.30;99.90
33011;DHT22;19370;48.562;9.196;2023-12-22T12:30:32;6.40;99.90
33011;DHT22;19370;48.562;9.196;2023-12-22T12:33:09;6.30;99.90
33011;DHT22;19370;48.562;9.196;2023-12-22T12:35:35;6.30;99.90
33011;DHT22;19370;48.562;9.196;2023-12-22T12:38:03;6.40;99.90
33011;DHT22;19370;48.562;9.196;2023-12-22T12:40:29;6.40;99.90
33011;DHT22;19370;48.562;9.196;2023-12-22T12:42:59;6.40;99.90
33011;DHT22;19370;48.562;9.196;2023-12-22T12:45:26;6.40;99.90
33011;DHT22;19370;48.562;9.196;2023-12-22T12:48:01;6.40;99.90
33011;DHT22;19370;48.562;9.196;2023-12-22T12:50:28;6.40;99.90
33011;DHT22;19370;48.562;9.196;2023-12-22T12:52:55;6.40;99.90
33011;DHT22;19370;48.562;9.196;2023-12-22T12:55:22;6.50;99.90
33011;DHT22;19370;48.562;9.196;2023-12-22T12:57:52;6.50;99.90
33011;DHT22;19370;48.562;9.196;2023-12-22T13:00:28;6.50;99.90
33011;DHT22;19370;48.562;9.196;2023-12-22T13:02:54;6.50;99.90
33011;DHT22;19370;48.562;9.196;2023-12-22T13:05:23;6.50;99.90
33011;DHT22;19370;48.562;9.196;2023-12-22T13:07:50;6.60;99.90
33011;DHT22;19370;48.562;9.196;2023-12-22T13:10:21;6.60;99.90
33011;DHT22;19370;48.562;9.196;2023-12-22T13:12:48;6.70;99.90
33011;DHT22;19370;48.562;9.196;2023-12-22T13:15:14;6.70;99.90
33011;DHT22;19370;48.562;9.196;2023-12-22T13:17:39;6.70;99.90
33011;DHT22;19370;48.562;9.196;2023-12-22T13:20:05;6.70;99.90
33011;DHT22;19370;48.562;9.196;2023-12-22T13:22:31;6.70;99.90
33011;DHT22;19370;48.562;9.196;2023-12-22T13:24:58;6.70;99.90
33011;DHT22;19370;48.562;9.196;2023-12-22T13:27:28;6.70;99.90
33011;DHT22;19370;48.562;9.196;2023-12-22T13:29:54;6.70;99.90
33011;DHT22;19370;48.562;9.196;2023-12-22T13:32:22;6.80;99.90
33011;DHT22;19370;48.562;9.196;2023-12-22T13:34:53;6.80;99.90
33011;DHT22;19370;48.562;9.196;2023-12-22T13:37:20;6.90;99.90
33011;DHT22;19370;48.562;9.196;2023-12-22T13:39:47;6.90;99.90
33011;DHT22;19370;48.562;9.196;2023-12-22T13:42:17;6.90;99.90
33011;DHT22;19370;48.562;9.196;2023-12-22T13:44:44;6.90;99.90
33011;DHT22;19370;48.562;9.196;2023-12-22T13:47:21;7.00;99.90
33011;DHT22;19370;48.562;9.196;2023-12-22T13:49:48;7.00;99.90
33011;DHT22;19370;48.562;9.196;2023-12-22T13:52:27;7.00;99.90
33011;DHT22;19370;48.562;9.196;2023-12-22T13:54:53;7.10;99.90
33011;DHT22;19370;48.562;9.196;2023-12-22T13:57:21;7.00;99.90
33011;DHT22;19370;48.562;9.196;2023-12-22T13:59:50;7.10;99.90
33011;DHT22;19370;48.562;9.196;2023-12-22T14:02:20;7.10;99.90
33011;DHT22;19370;48.562;9.196;2023-12-22T14:04:45;7.10;99.90
33011;DHT22;19370;48.562;9.196;2023-12-22T14:07:11;7.10;99.90
33011;DHT22;19370;48.562;9.196;2023-12-22T14:09:36;7.10;99.90
33011;DHT22;19370;48.562;9.196;2023-12-22T14:12:04;7.10;99.90
33011;DHT22;19370;48.562;9.196;2023-12-22T14:14:33;7.10;99.90
33011;DHT22;19370;48.562;9.196;2023-12-22T14:16:59;7.10;99.90
33011;DHT22;19370;48.562;9.196;2023-12-22T14:19:24;7.20;99.90
33011;DHT22;19370;48.562;9.196;2023-12-22T14:21:51;7.10;99.90
33011;DHT22;19370;48.562;9.196;2023-12-22T14:24:17;7.20;99.90
33011;DHT22;19370;48.562;9.196;2023-12-22T14:26:55;7.20;99.90
33011;DHT22;19370;48.562;9.196;2023-12-22T14:29:23;7.20;99.90
33011;DHT22;19370;48.562;9.196;2023-12-22T14:31:55;7.20;99.90
33011;DHT22;19370;48.562;9.196;2023-12-22T14:34:23;7.30;99.90
33011;DHT22;19370;48.562;9.196;2023-12-22T14:36:50;7.20;99.90
33011;DHT22;19370;48.562;9.196;2023-12-22T14:39:21;7.20;99.90
33011;DHT22;19370;48.562;9.196;2023-12-22T14:41:47;7.30;99.90
33011;DHT22;19370;48.562;9.196;2023-12-22T14:44:13;7.20;99.90
33011;DHT22;19370;48.562;9.196;2023-12-22T14:46:41;7.20;99.90
33011;DHT22;19370;48.562;9.196;2023-12-22T14:49:15;7.30;99.90
33011;DHT22;19370;48.562;9.196;2023-12-22T14:51:43;7.30;99.90
33011;DHT22;19370;48.562;9.196;2023-12-22T14:54:15;7.30;99.90
33011;DHT22;19370;48.562;9.196;2023-12-22T14:56:41;7.30;99.90
33011;DHT22;19370;48.562;9.196;2023-12-22T14:59:12;7.30;99.90
33011;DHT22;19370;48.562;9.196;2023-12-22T15:01:40;7.30;99.90
33011;DHT22;19370;48.562;9.196;2023-12-22T15:04:06;7.40;99.90
33011;DHT22;19370;48.562;9.196;2023-12-22T15:06:32;7.40;99.90
33011;DHT22;19370;48.562;9.196;2023-12-22T15:08:58;7.40;99.90
33011;DHT22;19370;48.562;9.196;2023-12-22T15:11:26;7.30;99.90
33011;DHT22;19370;48.562;9.196;2023-12-22T15:13:52;7.30;99.90
33011;DHT22;19370;48.562;9.196;2023-12-22T15:16:18;7.40;99.90
33011;DHT22;19370;48.562;9.196;2023-12-22T15:18:46;7.30;99.90
33011;DHT22;19370;48.562;9.196;2023-12-22T15:21:22;7.40;99.90
33011;DHT22;19370;48.562;9.196;2023-12-22T15:23:51;7.40;99.90
33011;DHT22;19370;48.562;9.196;2023-12-22T15:26:21;7.40;99.90
33011;DHT22;19370;48.562;9.196;2023-12-22T15:28:48;7.30;99.90
33011;DHT22;19370;48.562;9.196;2023-12-22T15:31:16;7.30;99.90
33011;DHT22;19370;48.562;9.196;2023-12-22T15:33:44;7.40;99.90
33011;DHT22;19370;48.562;9.196;2023-12-22T15:36:17;7.40;99.90
33011;DHT22;19370;48.562;9.196;2023-12-22T15:38:43;7.50;99.90
33011;DHT22;19370;48.562;9.196;2023-12-22T15:41:14;7.50;99.90
33011;DHT22;19370;48.562;9.196;2023-12-22T15:43:50;7.40;99.90
33011;DHT22;19370;48.562;9.196;2023-12-22T15:46:15;7.50;99.90
33011;DHT22;19370;48.562;9.196;2023-12-22T15:48:46;7.50;99.90
33011;DHT22;19370;48.562;9.196;2023-12-22T15:51:15;7.50;99.90
33011;DHT22;19370;48.562;9.196;2023-12-22T15:53:42;7.50;99.90
33011;DHT22;19370;48.562;9.196;2023-12-22T15:56:10;7.50;99.90
33011;DHT22;19370;48.562;9.196;2023-12-22T15:58:41;7.50;99.90
33011;DHT22;19370;48.562;9.196;2023-12-22T16:01:08;7.50;99.90
33011;DHT22;19370;48.562;9.196;2023-12-22T16:03:33;7.50;99.90
33011;DHT22;19370;48.562;9.196;2023-12-22T16:06:05;7.50;99.90
33011;DHT22;19370;48.562;9.196;2023-12-22T16:08:34;7.50;99.90
33011;DHT22;19370;48.562;9.196;2023-12-22T16:11:04;7.40;99.90
33011;DHT22;19370;48.562;9.196;2023-12-22T16:13:33;7.50;99.90
33011;DHT22;19370;48.562;9.196;2023-12-22T16:16:00;7.50;99.90
33011;DHT22;19370;48.562;9.196;2023-12-22T16:21:41;7.50;99.90
33011;DHT22;19370;48.562;9.196;2023-12-22T16:24:11;7.60;99.90
33011;DHT22;19370;48.562;9.196;2023-12-22T16:27:06;7.60;99.90
33011;DHT22;19370;48.562;9.196;2023-12-22T16:29:32;7.60;99.90
33011;DHT22;19370;48.562;9.196;2023-12-22T16:31:57;7.60;99.90
33011;DHT22;19370;48.562;9.196;2023-12-22T16:34:23;7.60;99.90
33011;DHT22;19370;48.562;9.196;2023-12-22T16:36:49;7.60;99.90
33011;DHT22;19370;48.562;9.196;2023-12-22T16:39:14;7.50;99.90
33011;DHT22;19370;48.562;9.196;2023-12-22T16:41:40;7.40;99.90
33011;DHT22;19370;48.562;9.196;2023-12-22T16:44:06;7.40;99.90
33011;DHT22;19370;48.562;9.196;2023-12-22T16:46:31;7.40;99.90
33011;DHT22;19370;48.562;9.196;2023-12-22T16:48:58;7.40;99.90
33011;DHT22;19370;48.562;9.196;2023-12-22T16:51:24;7.40;99.90
33011;DHT22;19370;48.562;9.196;2023-12-22T16:53:57;7.50;99.90
33011;DHT22;19370;48.562;9.196;2023-12-22T16:56:27;7.40;99.90
33011;DHT22;19370;48.562;9.196;2023-12-22T16:59:01;7.40;99.90
33011;DHT22;19370;48.562;9.196;2023-12-22T17:02:21;7.50;99.90
33011;DHT22;19370;48.562;9.196;2023-12-22T17:05:29;7.50;99.90
33011;DHT22;19370;48.562;9.196;2023-12-22T17:08:30;7.50;99.90
33011;DHT22;19370;48.562;9.196;2023-12-22T17:10:57;7.50;99.90
33011;DHT22;19370;48.562;9.196;2023-12-22T17:13:28;7.60;99.90
33011;DHT22;19370;48.562;9.196;2023-12-22T17:16:41;7.60;99.90
33011;DHT22;19370;48.562;9.196;2023-12-22T17:19:25;7.60;99.90
33011;DHT22;19370;48.562;9.196;2023-12-22T17:21:51;7.60;99.90
33011;DHT22;19370;48.562;9.196;2023-12-22T17:24:17;7.70;99.90
33011;DHT22;19370;48.562;9.196;2023-12-22T17:26:42;7.70;99.90
33011;DHT22;19370;48.562;9.196;2023-12-22T17:29:08;7.60;99.90
33011;DHT22;19370;48.562;9.196;2023-12-22T17:31:34;7.70;99.90
33011;DHT22;19370;48.562;9.196;2023-12-22T17:51:19;7.60;99.90
33011;DHT22;19370;48.562;9.196;2023-12-22T17:53:48;7.60;99.90
33011;DHT22;19370;48.562;9.196;2023-12-22T17:56:14;7.60;99.90
33011;DHT22;19370;48.562;9.196;2023-12-22T17:58:40;7.60;99.90
33011;DHT22;19370;48.562;9.196;2023-12-22T18:01:07;7.60;99.90
33011;DHT22;19370;48.562;9.196;2023-12-22T18:03:32;7.60;99.90
33011;DHT22;19370;48.562;9.196;2023-12-22T18:05:58;7.60;99.90
33011;DHT22;19370;48.562;9.196;2023-12-22T18:08:23;7.50;99.90
33011;DHT22;19370;48.562;9.196;2023-12-22T18:10:49;7.50;99.90
33011;DHT22;19370;48.562;9.196;2023-12-22T18:13:15;7.50;99.90
33011;DHT22;19370;48.562;9.196;2023-12-22T18:15:41;7.50;99.90
33011;DHT22;19370;48.562;9.196;2023-12-22T18:18:06;7.50;99.90
33011;DHT22;19370;48.562;9.196;2023-12-22T18:20:32;7.50;99.90
33011;DHT22;19370;48.562;9.196;2023-12-22T18:22:58;7.60;99.90
33011;DHT22;19370;48.562;9.196;2023-12-22T18:25:27;7.60;99.90
33011;DHT22;19370;48.562;9.196;2023-12-22T18:27:52;7.60;99.90
33011;DHT22;19370;48.562;9.196;2023-12-22T18:30:19;7.60;99.90
33011;DHT22;19370;48.562;9.196;2023-12-22T18:32:45;7.70;99.90
33011;DHT22;19370;48.562;9.196;2023-12-22T18:35:11;7.70;99.90
33011;DHT22;19370;48.562;9.196;2023-12-22T18:37:37;7.70;99.90
33011;DHT22;19370;48.562;9.196;2023-12-22T18:40:04;7.70;99.90
33011;DHT22;19370;48.562;9.196;2023-12-22T18:42:30;7.80;99.90
33011;DHT22;19370;48.562;9.196;2023-12-22T18:44:56;7.80;99.90
33011;DHT22;19370;48.562;9.196;2023-12-22T18:47:24;7.80;99.90
33011;DHT22;19370;48.562;9.196;2023-12-22T18:49:55;7.80;99.90
33011;DHT22;19370;48.562;9.196;2023-12-22T18:52:20;7.80;99.90
33011;DHT22;19370;48.562;9.196;2023-12-22T18:54:46;7.70;99.90
33011;DHT22;19370;48.562;9.196;2023-12-22T18:57:13;7.70;99.90
33011;DHT22;19370;48.562;9.196;2023-12-22T18:59:39;7.70;99.90
33011;DHT22;19370;48.562;9.196;2023-12-22T19:02:05;7.70;99.90
33011;DHT22;19370;48.562;9.196;2023-12-22T19:04:30;7.70;99.90
33011;DHT22;19370;48.562;9.196;2023-12-22T19:06:56;7.70;99.90
33011;DHT22;19370;48.562;9.196;2023-12-22T19:09:21;7.70;99.90
33011;DHT22;19370;48.562;9.196;2023-12-22T19:11:47;7.70;99.90
33011;DHT22;19370;48.562;9.196;2023-12-22T19:14:13;7.60;99.90
33011;DHT22;19370;48.562;9.196;2023-12-22T19:16:39;7.60;99.90
33011;DHT22;19370;48.562;9.196;2023-12-22T19:19:06;7.70;99.90
33011;DHT22;19370;48.562;9.196;2023-12-22T19:21:32;7.70;99.90
33011;DHT22;19370;48.562;9.196;2023-12-22T19:23:58;7.70;99.90
33011;DHT22;19370;48.562;9.196;2023-12-22T19:26:24;7.70;99.90
33011;DHT22;19370;48.562;9.196;2023-12-22T19:28:50;7.70;99.90
33011;DHT22;19370;48.562;9.196;2023-12-22T19:31:15;7.80;99.90
33011;DHT22;19370;48.562;9.196;2023-12-22T19:33:41;7.80;99.90